sensor_id;sensor_type;location;lat;lon;timestamp;temperature;humidity
41547;DHT22;27271;45.412;10.852;2022-09-03T00:00:24;17.80;99.90
41547;DHT22;27271;45.412;10.852;2022-09-03T00:03:51;17.90;99.90
41547;DHT22;27271;45.412;10.852;2022-09-03T00:07:21;17.90;99.90
41547;DHT22;27271;45.412;10.852;2022-09-03T00:14:20;17.80;99.90
41547;DHT22;27271;45.412;10.852;2022-09-03T00:21:22;17.90;99.90
41547;DHT22;27271;45.412;10.852;2022-09-03T00:24:47;17.90;99.90
41547;DHT22;27271;45.412;10.852;2022-09-03T00:28:15;17.90;99.90
41547;DHT22;27271;45.412;10.852;2022-09-03T00:31:44;17.90;99.90
41547;DHT22;27271;45.412;10.852;2022-09-03T00:38:46;17.80;99.90
41547;DHT22;27271;45.412;10.852;2022-09-03T00:42:30;17.90;99.90
41547;DHT22;27271;45.412;10.852;2022-09-03T00:49:59;17.60;99.90
41547;DHT22;27271;45.412;10.852;2022-09-03T00:54:00;17.60;99.90
41547;DHT22;27271;45.412;10.852;2022-09-03T01:01:30;17.70;99.90
41547;DHT22;27271;45.412;10.852;2022-09-03T01:12:11;18.10;99.90
41547;DHT22;27271;45.412;10.852;2022-09-03T01:26:54;18.40;99.90
41547;DHT22;27271;45.412;10.852;2022-09-03T01:30:26;18.40;99.90
41547;DHT22;27271;45.412;10.852;2022-09-03T01:34:03;18.50;99.90
41547;DHT22;27271;45.412;10.852;2022-09-03T01:37:48;18.40;99.90
41547;DHT22;27271;45.412;10.852;2022-09-03T01:41:26;18.40;99.90
41547;DHT22;27271;45.412;10.852;2022-09-03T01:52:58;18.20;99.90
41547;DHT22;27271;45.412;10.852;2022-09-03T01:56:48;18.10;99.90
41547;DHT22;27271;45.412;10.852;2022-09-03T02:00:20;18.10;99.90
41547;DHT22;27271;45.412;10.852;2022-09-03T02:03:44;18.20;99.90
41547;DHT22;27271;45.412;10.852;2022-09-03T02:07:07;18.20;99.90
41547;DHT22;27271;45.412;10.852;2022-09-03T02:10:48;18.20;99.90
41547;DHT22;27271;45.412;10.852;2022-09-03T02:14:12;18.10;99.90
41547;DHT22;27271;45.412;10.852;2022-09-03T02:17:35;18.20;99.90
41547;DHT22;27271;45.412;10.852;2022-09-03T02:20:58;18.20;99.90
41547;DHT22;27271;45.412;10.852;2022-09-03T02:24:23;18.20;99.90
41547;DHT22;27271;45.412;10.852;2022-09-03T02:27:48;18.30;99.90
41547;DHT22;27271;45.412;10.852;2022-09-03T02:31:10;18.30;99.90
41547;DHT22;27271;45.412;10.852;2022-09-03T02:34:33;18.40;99.90
41547;DHT22;27271;45.412;10.852;2022-09-03T02:37:56;18.40;99.90
41547;DHT22;27271;45.412;10.852;2022-09-03T02:41:18;18.50;99.90
41547;DHT22;27271;45.412;10.852;2022-09-03T02:44:44;18.60;99.90
41547;DHT22;27271;45.412;10.852;2022-09-03T02:48:10;18.60;99.90
41547;DHT22;27271;45.412;10.852;2022-09-03T02:51:38;18.60;99.90
41547;DHT22;27271;45.412;10.852;2022-09-03T02:55:06;18.60;99.90
41547;DHT22;27271;45.412;10.852;2022-09-03T02:58:28;18.70;99.90
41547;DHT22;27271;45.412;10.852;2022-09-03T03:01:52;18.60;99.90
41547;DHT22;27271;45.412;10.852;2022-09-03T03:05:23;18.50;99.90
41547;DHT22;27271;45.412;10.852;2022-09-03T03:08:48;18.40;99.90
41547;DHT22;27271;45.412;10.852;2022-09-03T03:12:11;18.50;99.90
41547;DHT22;27271;45.412;10.852;2022-09-03T03:15:34;18.60;99.90
41547;DHT22;27271;45.412;10.852;2022-09-03T03:18:57;18.60;99.90
41547;DHT22;27271;45.412;10.852;2022-09-03T03:22:19;18.60;99.90
41547;DHT22;27271;45.412;10.852;2022-09-03T03:25:43;18.60;99.90
41547;DHT22;27271;45.412;10.852;2022-09-03T03:29:05;18.60;99.90
41547;DHT22;27271;45.412;10.852;2022-09-03T03:32:28;18.60;99.90
41547;DHT22;27271;45.412;10.852;2022-09-03T03:35:53;18.60;99.90
41547;DHT22;27271;45.412;10.852;2022-09-03T03:39:15;18.50;99.90
41547;DHT22;27271;45.412;10.852;2022-09-03T03:42:38;18.40;99.90
41547;DHT22;27271;45.412;10.852;2022-09-03T03:46:00;18.40;99.90
41547;DHT22;27271;45.412;10.852;2022-09-03T03:49:23;18.30;99.90
41547;DHT22;27271;45.412;10.852;2022-09-03T03:52:45;18.20;99.90
41547;DHT22;27271;45.412;10.852;2022-09-03T03:56:13;18.10;99.90
41547;DHT22;27271;45.412;10.852;2022-09-03T03:59:36;18.00;99.90
41547;DHT22;27271;45.412;10.852;2022-09-03T04:03:01;17.90;99.90
41547;DHT22;27271;45.412;10.852;2022-09-03T04:06:24;17.70;99.90
41547;DHT22;27271;45.412;10.852;2022-09-03T04:09:46;17.70;99.90
41547;DHT22;27271;45.412;10.852;2022-09-03T04:13:08;17.60;99.90
41547;DHT22;27271;45.412;10.852;2022-09-03T04:16:31;17.40;99.90
41547;DHT22;27271;45.412;10.852;2022-09-03T04:19:54;17.40;99.90
41547;DHT22;27271;45.412;10.852;2022-09-03T04:23:17;17.40;99.90
41547;DHT22;27271;45.412;10.852;2022-09-03T04:26:39;17.30;99.90
41547;DHT22;27271;45.412;10.852;2022-09-03T04:30:02;17.20;99.90
41547;DHT22;27271;45.412;10.852;2022-09-03T04:33:25;17.20;99.90
41547;DHT22;27271;45.412;10.852;2022-09-03T04:36:50;17.20;99.90
41547;DHT22;27271;45.412;10.852;2022-09-03T04:40:14;17.20;99.90
41547;DHT22;27271;45.412;10.852;2022-09-03T04:43:36;17.20;99.90
41547;DHT22;27271;45.412;10.852;2022-09-03T04:46:59;17.20;99.90
41547;DHT22;27271;45.412;10.852;2022-09-03T04:50:21;17.20;99.90
41547;DHT22;27271;45.412;10.852;2022-09-03T04:53:57;17.30;99.90
41547;DHT22;27271;45.412;10.852;2022-09-03T04:57:20;17.60;99.90
41547;DHT22;27271;45.412;10.852;2022-09-03T05:00:43;17.70;99.90
41547;DHT22;27271;45.412;10.852;2022-09-03T05:04:06;17.90;99.90
41547;DHT22;27271;45.412;10.852;2022-09-03T05:07:29;18.00;99.90
41547;DHT22;27271;45.412;10.852;2022-09-03T05:10:59;18.10;99.90
41547;DHT22;27271;45.412;10.852;2022-09-03T05:14:21;18.20;99.90
41547;DHT22;27271;45.412;10.852;2022-09-03T05:17:44;18.40;99.90
41547;DHT22;27271;45.412;10.852;2022-09-03T05:21:07;18.50;99.90
41547;DHT22;27271;45.412;10.852;2022-09-03T05:24:30;18.70;99.90
41547;DHT22;27271;45.412;10.852;2022-09-03T05:27:52;18.80;99.90
41547;DHT22;27271;45.412;10.852;2022-09-03T05:31:17;18.90;99.90
41547;DHT22;27271;45.412;10.852;2022-09-03T05:34:39;19.00;99.90
41547;DHT22;27271;45.412;10.852;2022-09-03T05:38:01;19.00;99.90
41547;DHT22;27271;45.412;10.852;2022-09-03T05:41:25;19.10;99.90
41547;DHT22;27271;45.412;10.852;2022-09-03T05:44:47;19.30;99.90
41547;DHT22;27271;45.412;10.852;2022-09-03T05:48:10;19.50;99.90
41547;DHT22;27271;45.412;10.852;2022-09-03T05:51:34;19.80;99.90
41547;DHT22;27271;45.412;10.852;2022-09-03T05:54:57;20.00;99.90
41547;DHT22;27271;45.412;10.852;2022-09-03T05:58:19;20.10;99.90
41547;DHT22;27271;45.412;10.852;2022-09-03T06:01:44;20.40;99.90
41547;DHT22;27271;45.412;10.852;2022-09-03T06:05:13;20.80;99.90
41547;DHT22;27271;45.412;10.852;2022-09-03T06:08:35;21.50;99.90
41547;DHT22;27271;45.412;10.852;2022-09-03T06:12:01;22.00;99.90
41547;DHT22;27271;45.412;10.852;2022-09-03T06:15:25;22.40;99.90
41547;DHT22;27271;45.412;10.852;2022-09-03T06:18:47;22.90;99.90
41547;DHT22;27271;45.412;10.852;2022-09-03T06:22:09;23.20;99.90
41547;DHT22;27271;45.412;10.852;2022-09-03T06:25:32;23.30;99.90
41547;DHT22;27271;45.412;10.852;2022-09-03T06:28:54;23.40;99.90
41547;DHT22;27271;45.412;10.852;2022-09-03T06:32:17;23.40;99.90
41547;DHT22;27271;45.412;10.852;2022-09-03T06:35:39;23.60;99.90
41547;DHT22;27271;45.412;10.852;2022-09-03T06:39:03;24.30;97.90
41547;DHT22;27271;45.412;10.852;2022-09-03T06:42:25;25.60;97.00
41547;DHT22;27271;45.412;10.852;2022-09-03T06:46:08;27.10;93.30
41547;DHT22;27271;45.412;10.852;2022-09-03T06:49:31;28.40;89.90
41547;DHT22;27271;45.412;10.852;2022-09-03T06:52:53;28.70;83.90
41547;DHT22;27271;45.412;10.852;2022-09-03T06:56:20;30.40;79.70
41547;DHT22;27271;45.412;10.852;2022-09-03T06:59:49;31.20;76.00
41547;DHT22;27271;45.412;10.852;2022-09-03T07:03:11;31.80;75.30
41547;DHT22;27271;45.412;10.852;2022-09-03T07:06:37;31.30;69.80
41547;DHT22;27271;45.412;10.852;2022-09-03T07:10:00;31.40;71.30
41547;DHT22;27271;45.412;10.852;2022-09-03T07:13:22;30.70;71.40
41547;DHT22;27271;45.412;10.852;2022-09-03T07:16:48;28.90;76.00
41547;DHT22;27271;45.412;10.852;2022-09-03T07:20:11;27.50;75.70
41547;DHT22;27271;45.412;10.852;2022-09-03T07:23:35;26.70;84.30
41547;DHT22;27271;45.412;10.852;2022-09-03T07:26:58;27.60;86.20
41547;DHT22;27271;45.412;10.852;2022-09-03T07:30:20;29.60;75.70
41547;DHT22;27271;45.412;10.852;2022-09-03T07:33:42;31.60;70.50
41547;DHT22;27271;45.412;10.852;2022-09-03T07:37:04;32.10;71.10
41547;DHT22;27271;45.412;10.852;2022-09-03T07:40:27;32.20;66.20
41547;DHT22;27271;45.412;10.852;2022-09-03T07:43:51;32.10;65.50
41547;DHT22;27271;45.412;10.852;2022-09-03T07:47:13;31.80;63.30
41547;DHT22;27271;45.412;10.852;2022-09-03T07:50:42;31.10;64.50
41547;DHT22;27271;45.412;10.852;2022-09-03T07:54:07;31.00;64.70
41547;DHT22;27271;45.412;10.852;2022-09-03T07:57:30;30.30;65.20
41547;DHT22;27271;45.412;10.852;2022-09-03T08:00:52;29.00;65.30
41547;DHT22;27271;45.412;10.852;2022-09-03T08:04:17;28.90;69.20
41547;DHT22;27271;45.412;10.852;2022-09-03T08:07:39;28.90;67.90
41547;DHT22;27271;45.412;10.852;2022-09-03T08:11:06;28.20;69.00
41547;DHT22;27271;45.412;10.852;2022-09-03T08:14:32;28.80;69.30
41547;DHT22;27271;45.412;10.852;2022-09-03T08:17:54;30.60;68.50
41547;DHT22;27271;45.412;10.852;2022-09-03T08:21:25;33.00;64.20
41547;DHT22;27271;45.412;10.852;2022-09-03T08:24:47;33.00;59.20
41547;DHT22;27271;45.412;10.852;2022-09-03T08:28:10;32.20;64.10
41547;DHT22;27271;45.412;10.852;2022-09-03T08:31:33;32.10;62.00
41547;DHT22;27271;45.412;10.852;2022-09-03T08:34:55;32.20;59.00
41547;DHT22;27271;45.412;10.852;2022-09-03T08:38:17;31.80;62.80
41547;DHT22;27271;45.412;10.852;2022-09-03T08:45:18;32.00;63.20
41547;DHT22;27271;45.412;10.852;2022-09-03T08:48:42;32.40;62.50
41547;DHT22;27271;45.412;10.852;2022-09-03T08:52:12;32.50;59.40
41547;DHT22;27271;45.412;10.852;2022-09-03T08:56:00;31.90;59.20
41547;DHT22;27271;45.412;10.852;2022-09-03T08:59:23;32.40;59.50
41547;DHT22;27271;45.412;10.852;2022-09-03T09:10:46;32.40;58.10
41547;DHT22;27271;45.412;10.852;2022-09-03T09:14:23;33.00;55.70
41547;DHT22;27271;45.412;10.852;2022-09-03T09:17:56;31.70;57.80
41547;DHT22;27271;45.412;10.852;2022-09-03T09:21:33;30.20;60.40
41547;DHT22;27271;45.412;10.852;2022-09-03T09:25:00;29.00;65.00
41547;DHT22;27271;45.412;10.852;2022-09-03T09:28:25;29.60;62.60
41547;DHT22;27271;45.412;10.852;2022-09-03T09:31:49;30.60;66.10
41547;DHT22;27271;45.412;10.852;2022-09-03T09:35:12;30.50;59.80
41547;DHT22;27271;45.412;10.852;2022-09-03T09:38:36;29.20;60.40
41547;DHT22;27271;45.412;10.852;2022-09-03T09:42:09;29.30;63.00
41547;DHT22;27271;45.412;10.852;2022-09-03T09:45:31;28.90;64.20
41547;DHT22;27271;45.412;10.852;2022-09-03T09:48:56;29.70;65.40
41547;DHT22;27271;45.412;10.852;2022-09-03T09:52:22;30.30;65.70
41547;DHT22;27271;45.412;10.852;2022-09-03T09:55:57;30.10;62.20
41547;DHT22;27271;45.412;10.852;2022-09-03T09:59:19;30.20;64.30
41547;DHT22;27271;45.412;10.852;2022-09-03T10:02:51;29.60;65.90
41547;DHT22;27271;45.412;10.852;2022-09-03T10:06:17;30.60;63.70
41547;DHT22;27271;45.412;10.852;2022-09-03T10:13:34;33.00;57.10
41547;DHT22;27271;45.412;10.852;2022-09-03T10:17:16;32.30;61.80
41547;DHT22;27271;45.412;10.852;2022-09-03T10:21:12;32.30;60.60
41547;DHT22;27271;45.412;10.852;2022-09-03T10:24:51;32.80;56.60
41547;DHT22;27271;45.412;10.852;2022-09-03T10:28:20;32.00;57.90
41547;DHT22;27271;45.412;10.852;2022-09-03T10:35:33;32.10;59.20
41547;DHT22;27271;45.412;10.852;2022-09-03T10:46:10;31.70;63.40
41547;DHT22;27271;45.412;10.852;2022-09-03T10:50:16;30.50;61.80
41547;DHT22;27271;45.412;10.852;2022-09-03T11:00:44;31.40;63.40
41547;DHT22;27271;45.412;10.852;2022-09-03T11:08:06;31.10;63.70
41547;DHT22;27271;45.412;10.852;2022-09-03T11:11:36;30.60;62.90
41547;DHT22;27271;45.412;10.852;2022-09-03T11:15:40;30.30;60.50
41547;DHT22;27271;45.412;10.852;2022-09-03T11:19:04;30.50;65.00
41547;DHT22;27271;45.412;10.852;2022-09-03T11:22:28;30.40;63.30
41547;DHT22;27271;45.412;10.852;2022-09-03T11:25:55;30.20;61.00
41547;DHT22;27271;45.412;10.852;2022-09-03T11:33:08;29.60;65.70
41547;DHT22;27271;45.412;10.852;2022-09-03T11:36:41;30.00;67.00
41547;DHT22;27271;45.412;10.852;2022-09-03T11:40:16;30.40;67.70
41547;DHT22;27271;45.412;10.852;2022-09-03T11:43:41;31.40;65.10
41547;DHT22;27271;45.412;10.852;2022-09-03T11:47:22;31.50;60.60
41547;DHT22;27271;45.412;10.852;2022-09-03T11:50:53;31.30;61.00
41547;DHT22;27271;45.412;10.852;2022-09-03T11:57:40;29.20;63.10
41547;DHT22;27271;45.412;10.852;2022-09-03T12:01:11;28.60;66.00
41547;DHT22;27271;45.412;10.852;2022-09-03T12:04:53;28.90;68.20
41547;DHT22;27271;45.412;10.852;2022-09-03T12:08:49;28.80;67.90
41547;DHT22;27271;45.412;10.852;2022-09-03T12:19:54;29.50;68.40
41547;DHT22;27271;45.412;10.852;2022-09-03T12:26:55;28.70;69.40
41547;DHT22;27271;45.412;10.852;2022-09-03T12:30:22;28.80;69.60
41547;DHT22;27271;45.412;10.852;2022-09-03T12:33:47;28.90;73.30
41547;DHT22;27271;45.412;10.852;2022-09-03T12:37:22;29.30;68.60
41547;DHT22;27271;45.412;10.852;2022-09-03T12:41:28;28.60;68.70
41547;DHT22;27271;45.412;10.852;2022-09-03T12:44:52;29.00;71.90
41547;DHT22;27271;45.412;10.852;2022-09-03T12:48:16;28.90;72.40
41547;DHT22;27271;45.412;10.852;2022-09-03T12:51:41;28.60;70.90
41547;DHT22;27271;45.412;10.852;2022-09-03T12:55:24;28.80;68.30
41547;DHT22;27271;45.412;10.852;2022-09-03T12:59:10;29.50;69.90
41547;DHT22;27271;45.412;10.852;2022-09-03T13:06:21;29.30;68.60
41547;DHT22;27271;45.412;10.852;2022-09-03T13:09:48;29.20;69.60
41547;DHT22;27271;45.412;10.852;2022-09-03T13:13:24;28.90;70.10
41547;DHT22;27271;45.412;10.852;2022-09-03T13:17:09;28.70;69.90
41547;DHT22;27271;45.412;10.852;2022-09-03T13:20:50;28.20;67.70
41547;DHT22;27271;45.412;10.852;2022-09-03T13:39:48;29.20;71.70
41547;DHT22;27271;45.412;10.852;2022-09-03T13:43:32;29.20;66.30
41547;DHT22;27271;45.412;10.852;2022-09-03T13:47:08;28.90;67.30
41547;DHT22;27271;45.412;10.852;2022-09-03T13:50:49;28.40;68.70
41547;DHT22;27271;45.412;10.852;2022-09-03T13:54:30;28.20;67.60
41547;DHT22;27271;45.412;10.852;2022-09-03T13:58:26;28.40;69.80
41547;DHT22;27271;45.412;10.852;2022-09-03T14:02:30;29.00;71.60
41547;DHT22;27271;45.412;10.852;2022-09-03T14:10:05;29.70;67.20
41547;DHT22;27271;45.412;10.852;2022-09-03T14:17:35;28.10;69.30
41547;DHT22;27271;45.412;10.852;2022-09-03T14:21:06;27.70;68.80
41547;DHT22;27271;45.412;10.852;2022-09-03T14:28:49;27.20;72.70
41547;DHT22;27271;45.412;10.852;2022-09-03T14:32:31;27.60;71.90
41547;DHT22;27271;45.412;10.852;2022-09-03T14:36:28;28.30;73.70
41547;DHT22;27271;45.412;10.852;2022-09-03T14:39:55;28.70;68.60
41547;DHT22;27271;45.412;10.852;2022-09-03T15:01:37;28.20;71.70
41547;DHT22;27271;45.412;10.852;2022-09-03T15:16:07;27.90;76.40
41547;DHT22;27271;45.412;10.852;2022-09-03T15:30:18;27.20;78.10
41547;DHT22;27271;45.412;10.852;2022-09-03T15:37:43;26.80;80.00
41547;DHT22;27271;45.412;10.852;2022-09-03T15:41:16;26.60;79.80
41547;DHT22;27271;45.412;10.852;2022-09-03T15:44:49;26.50;80.90
41547;DHT22;27271;45.412;10.852;2022-09-03T15:55:38;26.30;81.80
41547;DHT22;27271;45.412;10.852;2022-09-03T16:03:00;26.30;83.70
41547;DHT22;27271;45.412;10.852;2022-09-03T16:10:15;26.30;82.50
41547;DHT22;27271;45.412;10.852;2022-09-03T16:17:35;26.00;84.80
41547;DHT22;27271;45.412;10.852;2022-09-03T16:21:31;25.90;83.40
41547;DHT22;27271;45.412;10.852;2022-09-03T16:25:11;25.80;84.80
41547;DHT22;27271;45.412;10.852;2022-09-03T16:33:03;26.20;85.50
41547;DHT22;27271;45.412;10.852;2022-09-03T16:36:55;26.40;85.00
41547;DHT22;27271;45.412;10.852;2022-09-03T17:00:07;25.40;86.70
41547;DHT22;27271;45.412;10.852;2022-09-03T17:11:06;25.00;88.30
41547;DHT22;27271;45.412;10.852;2022-09-03T17:22:09;24.60;90.60
41547;DHT22;27271;45.412;10.852;2022-09-03T17:25:37;24.50;90.50
41547;DHT22;27271;45.412;10.852;2022-09-03T17:36:24;24.20;91.70
41547;DHT22;27271;45.412;10.852;2022-09-03T17:43:52;24.10;92.80
41547;DHT22;27271;45.412;10.852;2022-09-03T17:51:16;23.80;94.50
41547;DHT22;27271;45.412;10.852;2022-09-03T17:54:48;23.70;94.60
41547;DHT22;27271;45.412;10.852;2022-09-03T17:58:40;23.70;94.10
41547;DHT22;27271;45.412;10.852;2022-09-03T18:05:53;23.60;95.00
41547;DHT22;27271;45.412;10.852;2022-09-03T18:09:46;23.50;95.10
41547;DHT22;27271;45.412;10.852;2022-09-03T18:13:15;23.40;96.10
41547;DHT22;27271;45.412;10.852;2022-09-03T18:16:52;23.40;96.10
41547;DHT22;27271;45.412;10.852;2022-09-03T18:20:21;23.30;96.80
41547;DHT22;27271;45.412;10.852;2022-09-03T18:24:27;23.20;96.60
41547;DHT22;27271;45.412;10.852;2022-09-03T18:28:15;23.10;97.20
41547;DHT22;27271;45.412;10.852;2022-09-03T18:31:59;23.10;98.30
41547;DHT22;27271;45.412;10.852;2022-09-03T18:35:45;23.00;99.90
41547;DHT22;27271;45.412;10.852;2022-09-03T18:39:27;23.00;99.90
41547;DHT22;27271;45.412;10.852;2022-09-03T18:43:18;22.80;99.90
41547;DHT22;27271;45.412;10.852;2022-09-03T18:52:25;22.50;99.90
41547;DHT22;27271;45.412;10.852;2022-09-03T18:56:12;22.50;99.90
41547;DHT22;27271;45.412;10.852;2022-09-03T19:03:58;22.40;99.90
41547;DHT22;27271;45.412;10.852;2022-09-03T19:08:05;22.40;99.90
41547;DHT22;27271;45.412;10.852;2022-09-03T19:16:18;22.30;99.90
41547;DHT22;27271;45.412;10.852;2022-09-03T19:23:45;22.30;99.90
41547;DHT22;27271;45.412;10.852;2022-09-03T19:28:23;22.40;99.90
41547;DHT22;27271;45.412;10.852;2022-09-03T19:31:45;22.40;99.90
41547;DHT22;27271;45.412;10.852;2022-09-03T19:35:40;22.40;99.90
41547;DHT22;27271;45.412;10.852;2022-09-03T19:51:55;22.00;99.90
41547;DHT22;27271;45.412;10.852;2022-09-03T19:55:45;21.90;99.90
41547;DHT22;27271;45.412;10.852;2022-09-03T19:59:34;21.80;99.90
41547;DHT22;27271;45.412;10.852;2022-09-03T20:03:15;21.80;99.90
41547;DHT22;27271;45.412;10.852;2022-09-03T20:06:59;21.70;99.90
41547;DHT22;27271;45.412;10.852;2022-09-03T20:10:47;21.60;99.90
41547;DHT22;27271;45.412;10.852;2022-09-03T20:14:14;21.60;99.90
41547;DHT22;27271;45.412;10.852;2022-09-03T20:17:59;21.50;99.90
41547;DHT22;27271;45.412;10.852;2022-09-03T20:21:37;21.50;99.90
41547;DHT22;27271;45.412;10.852;2022-09-03T20:25:30;21.40;99.90
41547;DHT22;27271;45.412;10.852;2022-09-03T20:33:38;21.30;99.90
41547;DHT22;27271;45.412;10.852;2022-09-03T20:40:44;21.30;99.90
41547;DHT22;27271;45.412;10.852;2022-09-03T20:48:02;21.40;99.90
41547;DHT22;27271;45.412;10.852;2022-09-03T20:51:31;21.40;99.90
41547;DHT22;27271;45.412;10.852;2022-09-03T20:55:19;21.50;99.90
41547;DHT22;27271;45.412;10.852;2022-09-03T21:06:08;21.50;99.90
41547;DHT22;27271;45.412;10.852;2022-09-03T21:09:52;21.40;99.90
41547;DHT22;27271;45.412;10.852;2022-09-03T21:24:51;21.20;99.90
41547;DHT22;27271;45.412;10.852;2022-09-03T21:28:32;21.20;99.90
41547;DHT22;27271;45.412;10.852;2022-09-03T21:32:09;21.30;99.90
41547;DHT22;27271;45.412;10.852;2022-09-03T21:35:37;21.30;99.90
41547;DHT22;27271;45.412;10.852;2022-09-03T21:39:12;21.40;99.90
41547;DHT22;27271;45.412;10.852;2022-09-03T21:43:22;21.40;99.90
41547;DHT22;27271;45.412;10.852;2022-09-03T21:46:29;21.40;99.90
41547;DHT22;27271;45.412;10.852;2022-09-03T21:50:02;21.30;99.90
41547;DHT22;27271;45.412;10.852;2022-09-03T21:53:29;21.20;99.90
41547;DHT22;27271;45.412;10.852;2022-09-03T21:57:09;21.20;99.90
41547;DHT22;27271;45.412;10.852;2022-09-03T22:00:39;21.20;99.90
41547;DHT22;27271;45.412;10.852;2022-09-03T22:04:01;21.20;99.90
41547;DHT22;27271;45.412;10.852;2022-09-03T22:14:48;21.20;99.90
41547;DHT22;27271;45.412;10.852;2022-09-03T22:18:24;21.10;99.90
41547;DHT22;27271;45.412;10.852;2022-09-03T22:21:59;21.10;99.90
41547;DHT22;27271;45.412;10.852;2022-09-03T22:29:13;21.00;99.90
41547;DHT22;27271;45.412;10.852;2022-09-03T22:36:25;20.90;99.90
41547;DHT22;27271;45.412;10.852;2022-09-03T22:39:49;20.90;99.90
41547;DHT22;27271;45.412;10.852;2022-09-03T22:43:34;20.90;99.90
41547;DHT22;27271;45.412;10.852;2022-09-03T22:51:02;20.80;99.90
41547;DHT22;27271;45.412;10.852;2022-09-03T23:01:32;20.60;99.90
41547;DHT22;27271;45.412;10.852;2022-09-03T23:08:37;20.40;99.90
41547;DHT22;27271;45.412;10.852;2022-09-03T23:12:09;20.50;99.90
41547;DHT22;27271;45.412;10.852;2022-09-03T23:15:37;20.50;99.90
41547;DHT22;27271;45.412;10.852;2022-09-03T23:19:05;20.50;99.90
41547;DHT22;27271;45.412;10.852;2022-09-03T23:22:39;20.50;99.90
41547;DHT22;27271;45.412;10.852;2022-09-03T23:26:49;20.50;99.90
41547;DHT22;27271;45.412;10.852;2022-09-03T23:29:53;20.60;99.90
41547;DHT22;27271;45.412;10.852;2022-09-03T23:33:15;20.60;99.90
41547;DHT22;27271;45.412;10.852;2022-09-03T23:36:51;20.60;99.90
41547;DHT22;27271;45.412;10.852;2022-09-03T23:40:46;20.60;99.90
41547;DHT22;27271;45.412;10.852;2022-09-03T23:52:12;20.40;99.90
